sensor_id;sensor_type;location;lat;lon;timestamp;P1;durP1;ratioP1;P2;durP2;ratioP2
2720;SDS011;1368;49.484;11.112;2023-08-06T00:01:48;11.80;;;10.10;;
2720;SDS011;1368;49.484;11.112;2023-08-06T00:04:14;15.10;;;10.70;;
2720;SDS011;1368;49.484;11.112;2023-08-06T00:06:39;15.43;;;10.93;;
2720;SDS011;1368;49.484;11.112;2023-08-06T00:09:05;15.00;;;11.20;;
2720;SDS011;1368;49.484;11.112;2023-08-06T00:11:30;12.93;;;9.33;;
2720;SDS011;1368;49.484;11.112;2023-08-06T00:13:56;11.70;;;9.77;;
2720;SDS011;1368;49.484;11.112;2023-08-06T00:16:22;10.40;;;9.30;;
2720;SDS011;1368;49.484;11.112;2023-08-06T00:18:47;13.70;;;10.17;;
2720;SDS011;1368;49.484;11.112;2023-08-06T00:21:13;15.30;;;11.33;;
2720;SDS011;1368;49.484;11.112;2023-08-06T00:23:39;12.00;;;10.30;;
2720;SDS011;1368;49.484;11.112;2023-08-06T00:26:05;11.83;;;10.40;;
2720;SDS011;1368;49.484;11.112;2023-08-06T00:28:31;14.13;;;11.00;;
2720;SDS011;1368;49.484;11.112;2023-08-06T00:30:56;16.17;;;10.07;;
2720;SDS011;1368;49.484;11.112;2023-08-06T00:33:22;14.90;;;11.23;;
2720;SDS011;1368;49.484;11.112;2023-08-06T00:35:48;16.97;;;10.70;;
2720;SDS011;1368;49.484;11.112;2023-08-06T00:38:14;15.23;;;10.43;;
2720;SDS011;1368;49.484;11.112;2023-08-06T00:40:39;17.40;;;11.77;;
2720;SDS011;1368;49.484;11.112;2023-08-06T00:43:05;12.17;;;9.67;;
2720;SDS011;1368;49.484;11.112;2023-08-06T00:45:31;15.67;;;11.20;;
2720;SDS011;1368;49.484;11.112;2023-08-06T00:48:00;13.50;;;10.70;;
2720;SDS011;1368;49.484;11.112;2023-08-06T00:50:26;9.97;;;8.37;;
2720;SDS011;1368;49.484;11.112;2023-08-06T00:52:51;15.80;;;10.80;;
2720;SDS011;1368;49.484;11.112;2023-08-06T00:55:17;14.33;;;10.90;;
2720;SDS011;1368;49.484;11.112;2023-08-06T00:57:43;19.60;;;12.63;;
2720;SDS011;1368;49.484;11.112;2023-08-06T01:00:09;12.97;;;10.90;;
2720;SDS011;1368;49.484;11.112;2023-08-06T01:02:35;13.57;;;11.07;;
2720;SDS011;1368;49.484;11.112;2023-08-06T01:05:00;13.50;;;11.93;;
2720;SDS011;1368;49.484;11.112;2023-08-06T01:10:15;15.97;;;12.30;;
2720;SDS011;1368;49.484;11.112;2023-08-06T01:12:50;16.70;;;13.53;;
2720;SDS011;1368;49.484;11.112;2023-08-06T01:15:35;15.83;;;11.20;;
2720;SDS011;1368;49.484;11.112;2023-08-06T01:18:23;15.97;;;14.03;;
2720;SDS011;1368;49.484;11.112;2023-08-06T01:20:49;13.87;;;12.37;;
2720;SDS011;1368;49.484;11.112;2023-08-06T01:23:17;16.33;;;13.53;;
2720;SDS011;1368;49.484;11.112;2023-08-06T01:25:55;13.07;;;11.67;;
2720;SDS011;1368;49.484;11.112;2023-08-06T01:28:44;18.10;;;13.13;;
2720;SDS011;1368;49.484;11.112;2023-08-06T01:31:25;15.57;;;13.27;;
2720;SDS011;1368;49.484;11.112;2023-08-06T01:34:01;28.03;;;17.80;;
2720;SDS011;1368;49.484;11.112;2023-08-06T01:36:29;16.57;;;14.43;;
2720;SDS011;1368;49.484;11.112;2023-08-06T01:38:56;15.33;;;13.00;;
2720;SDS011;1368;49.484;11.112;2023-08-06T01:41:22;20.97;;;15.43;;
2720;SDS011;1368;49.484;11.112;2023-08-06T01:43:48;17.03;;;12.70;;
2720;SDS011;1368;49.484;11.112;2023-08-06T01:46:13;17.90;;;13.20;;
2720;SDS011;1368;49.484;11.112;2023-08-06T01:48:39;19.60;;;15.97;;
2720;SDS011;1368;49.484;11.112;2023-08-06T01:51:04;17.33;;;14.20;;
2720;SDS011;1368;49.484;11.112;2023-08-06T01:53:33;17.57;;;14.17;;
2720;SDS011;1368;49.484;11.112;2023-08-06T01:55:59;26.63;;;17.07;;
2720;SDS011;1368;49.484;11.112;2023-08-06T01:58:24;18.90;;;15.50;;
2720;SDS011;1368;49.484;11.112;2023-08-06T02:00:50;16.47;;;14.47;;
2720;SDS011;1368;49.484;11.112;2023-08-06T02:03:15;17.90;;;14.80;;
2720;SDS011;1368;49.484;11.112;2023-08-06T02:05:41;25.17;;;17.53;;
2720;SDS011;1368;49.484;11.112;2023-08-06T02:08:07;21.43;;;16.70;;
2720;SDS011;1368;49.484;11.112;2023-08-06T02:10:32;18.30;;;14.73;;
2720;SDS011;1368;49.484;11.112;2023-08-06T02:12:58;19.37;;;15.73;;
2720;SDS011;1368;49.484;11.112;2023-08-06T02:15:24;18.93;;;16.40;;
2720;SDS011;1368;49.484;11.112;2023-08-06T02:17:49;15.73;;;13.30;;
2720;SDS011;1368;49.484;11.112;2023-08-06T02:20:15;15.40;;;13.50;;
2720;SDS011;1368;49.484;11.112;2023-08-06T02:22:41;20.73;;;14.60;;
2720;SDS011;1368;49.484;11.112;2023-08-06T02:25:06;17.13;;;14.70;;
2720;SDS011;1368;49.484;11.112;2023-08-06T02:27:32;18.33;;;12.00;;
2720;SDS011;1368;49.484;11.112;2023-08-06T02:29:57;17.77;;;14.67;;
2720;SDS011;1368;49.484;11.112;2023-08-06T02:32:23;12.80;;;11.50;;
2720;SDS011;1368;49.484;11.112;2023-08-06T02:34:49;14.13;;;12.07;;
2720;SDS011;1368;49.484;11.112;2023-08-06T02:37:14;15.13;;;12.93;;
2720;SDS011;1368;49.484;11.112;2023-08-06T02:39:40;18.47;;;15.03;;
2720;SDS011;1368;49.484;11.112;2023-08-06T02:42:06;11.10;;;10.00;;
2720;SDS011;1368;49.484;11.112;2023-08-06T02:44:33;13.93;;;10.90;;
2720;SDS011;1368;49.484;11.112;2023-08-06T02:46:59;18.53;;;14.37;;
2720;SDS011;1368;49.484;11.112;2023-08-06T02:49:25;13.77;;;10.60;;
2720;SDS011;1368;49.484;11.112;2023-08-06T02:51:51;11.73;;;9.20;;
2720;SDS011;1368;49.484;11.112;2023-08-06T02:54:17;14.30;;;11.13;;
2720;SDS011;1368;49.484;11.112;2023-08-06T02:56:43;10.50;;;9.40;;
2720;SDS011;1368;49.484;11.112;2023-08-06T02:59:10;9.17;;;7.83;;
2720;SDS011;1368;49.484;11.112;2023-08-06T03:01:36;9.10;;;8.00;;
2720;SDS011;1368;49.484;11.112;2023-08-06T03:04:01;12.47;;;9.27;;
2720;SDS011;1368;49.484;11.112;2023-08-06T03:06:27;9.60;;;8.63;;
2720;SDS011;1368;49.484;11.112;2023-08-06T03:08:52;12.10;;;9.13;;
2720;SDS011;1368;49.484;11.112;2023-08-06T03:11:18;9.80;;;8.60;;
2720;SDS011;1368;49.484;11.112;2023-08-06T03:13:43;9.10;;;8.13;;
2720;SDS011;1368;49.484;11.112;2023-08-06T03:16:09;10.73;;;7.47;;
2720;SDS011;1368;49.484;11.112;2023-08-06T03:18:35;6.50;;;5.00;;
2720;SDS011;1368;49.484;11.112;2023-08-06T03:21:00;8.57;;;6.23;;
2720;SDS011;1368;49.484;11.112;2023-08-06T03:23:26;10.53;;;7.63;;
2720;SDS011;1368;49.484;11.112;2023-08-06T03:25:51;11.50;;;8.63;;
2720;SDS011;1368;49.484;11.112;2023-08-06T03:28:17;9.53;;;7.73;;
2720;SDS011;1368;49.484;11.112;2023-08-06T03:30:42;7.50;;;5.97;;
2720;SDS011;1368;49.484;11.112;2023-08-06T03:33:08;9.10;;;7.00;;
2720;SDS011;1368;49.484;11.112;2023-08-06T03:35:33;8.67;;;7.27;;
2720;SDS011;1368;49.484;11.112;2023-08-06T03:37:59;7.30;;;6.43;;
2720;SDS011;1368;49.484;11.112;2023-08-06T03:40:25;11.43;;;6.53;;
2720;SDS011;1368;49.484;11.112;2023-08-06T03:42:50;8.30;;;7.00;;
2720;SDS011;1368;49.484;11.112;2023-08-06T03:45:16;10.60;;;7.60;;
2720;SDS011;1368;49.484;11.112;2023-08-06T03:47:41;8.87;;;7.30;;
2720;SDS011;1368;49.484;11.112;2023-08-06T03:50:07;13.30;;;7.47;;
2720;SDS011;1368;49.484;11.112;2023-08-06T03:52:33;12.73;;;7.40;;
2720;SDS011;1368;49.484;11.112;2023-08-06T03:54:58;9.33;;;7.50;;
2720;SDS011;1368;49.484;11.112;2023-08-06T03:57:24;9.13;;;7.43;;
2720;SDS011;1368;49.484;11.112;2023-08-06T03:59:49;9.90;;;8.20;;
2720;SDS011;1368;49.484;11.112;2023-08-06T04:02:15;8.73;;;7.17;;
2720;SDS011;1368;49.484;11.112;2023-08-06T04:04:40;12.20;;;8.77;;
2720;SDS011;1368;49.484;11.112;2023-08-06T04:07:06;10.97;;;8.93;;
2720;SDS011;1368;49.484;11.112;2023-08-06T04:09:31;11.60;;;7.73;;
2720;SDS011;1368;49.484;11.112;2023-08-06T04:11:57;11.63;;;8.97;;
2720;SDS011;1368;49.484;11.112;2023-08-06T04:14:23;16.53;;;11.20;;
2720;SDS011;1368;49.484;11.112;2023-08-06T04:16:51;14.63;;;11.83;;
2720;SDS011;1368;49.484;11.112;2023-08-06T04:19:16;14.20;;;10.87;;
2720;SDS011;1368;49.484;11.112;2023-08-06T04:21:42;14.30;;;9.30;;
2720;SDS011;1368;49.484;11.112;2023-08-06T04:24:07;15.00;;;10.80;;
2720;SDS011;1368;49.484;11.112;2023-08-06T04:26:33;14.97;;;11.33;;
2720;SDS011;1368;49.484;11.112;2023-08-06T04:28:58;10.80;;;9.03;;
2720;SDS011;1368;49.484;11.112;2023-08-06T04:31:24;13.70;;;10.70;;
2720;SDS011;1368;49.484;11.112;2023-08-06T04:33:49;15.77;;;11.73;;
2720;SDS011;1368;49.484;11.112;2023-08-06T04:36:15;15.47;;;9.50;;
2720;SDS011;1368;49.484;11.112;2023-08-06T04:38:40;12.27;;;8.40;;
2720;SDS011;1368;49.484;11.112;2023-08-06T04:41:10;12.20;;;9.60;;
2720;SDS011;1368;49.484;11.112;2023-08-06T04:43:35;11.37;;;8.00;;
2720;SDS011;1368;49.484;11.112;2023-08-06T04:46:01;12.20;;;8.50;;
2720;SDS011;1368;49.484;11.112;2023-08-06T04:48:26;13.90;;;8.30;;
2720;SDS011;1368;49.484;11.112;2023-08-06T04:50:52;9.13;;;7.33;;
2720;SDS011;1368;49.484;11.112;2023-08-06T04:53:18;8.03;;;6.60;;
2720;SDS011;1368;49.484;11.112;2023-08-06T04:55:43;10.87;;;9.03;;
2720;SDS011;1368;49.484;11.112;2023-08-06T04:58:09;8.70;;;6.90;;
2720;SDS011;1368;49.484;11.112;2023-08-06T05:00:35;7.53;;;6.73;;
2720;SDS011;1368;49.484;11.112;2023-08-06T05:03:01;8.37;;;7.20;;
2720;SDS011;1368;49.484;11.112;2023-08-06T05:05:27;8.10;;;6.30;;
2720;SDS011;1368;49.484;11.112;2023-08-06T05:07:53;10.13;;;7.33;;
2720;SDS011;1368;49.484;11.112;2023-08-06T05:10:19;8.97;;;7.50;;
2720;SDS011;1368;49.484;11.112;2023-08-06T05:12:45;10.93;;;7.40;;
2720;SDS011;1368;49.484;11.112;2023-08-06T05:15:11;9.00;;;6.20;;
2720;SDS011;1368;49.484;11.112;2023-08-06T05:17:36;12.10;;;5.90;;
2720;SDS011;1368;49.484;11.112;2023-08-06T05:20:02;6.63;;;5.33;;
2720;SDS011;1368;49.484;11.112;2023-08-06T05:22:28;7.53;;;5.77;;
2720;SDS011;1368;49.484;11.112;2023-08-06T05:24:54;6.27;;;4.63;;
2720;SDS011;1368;49.484;11.112;2023-08-06T05:27:19;7.60;;;5.33;;
2720;SDS011;1368;49.484;11.112;2023-08-06T05:29:45;10.70;;;5.50;;
2720;SDS011;1368;49.484;11.112;2023-08-06T05:32:11;7.97;;;5.57;;
2720;SDS011;1368;49.484;11.112;2023-08-06T05:34:36;6.37;;;5.37;;
2720;SDS011;1368;49.484;11.112;2023-08-06T05:37:02;6.77;;;4.40;;
2720;SDS011;1368;49.484;11.112;2023-08-06T05:39:28;6.40;;;4.33;;
2720;SDS011;1368;49.484;11.112;2023-08-06T05:41:54;7.40;;;4.30;;
2720;SDS011;1368;49.484;11.112;2023-08-06T05:44:20;6.97;;;4.00;;
2720;SDS011;1368;49.484;11.112;2023-08-06T05:46:46;7.30;;;3.73;;
2720;SDS011;1368;49.484;11.112;2023-08-06T05:49:11;5.57;;;3.80;;
2720;SDS011;1368;49.484;11.112;2023-08-06T05:51:38;6.20;;;4.13;;
2720;SDS011;1368;49.484;11.112;2023-08-06T05:54:04;5.63;;;4.43;;
2720;SDS011;1368;49.484;11.112;2023-08-06T05:56:29;4.33;;;3.77;;
2720;SDS011;1368;49.484;11.112;2023-08-06T05:58:55;8.73;;;5.10;;
2720;SDS011;1368;49.484;11.112;2023-08-06T06:01:21;5.70;;;4.13;;
2720;SDS011;1368;49.484;11.112;2023-08-06T06:03:46;5.63;;;4.20;;
2720;SDS011;1368;49.484;11.112;2023-08-06T06:06:12;5.03;;;3.33;;
2720;SDS011;1368;49.484;11.112;2023-08-06T06:08:37;4.67;;;4.07;;
2720;SDS011;1368;49.484;11.112;2023-08-06T06:11:03;4.93;;;4.20;;
2720;SDS011;1368;49.484;11.112;2023-08-06T06:13:28;4.63;;;3.90;;
2720;SDS011;1368;49.484;11.112;2023-08-06T06:15:54;9.63;;;4.10;;
2720;SDS011;1368;49.484;11.112;2023-08-06T06:18:23;6.40;;;3.90;;
2720;SDS011;1368;49.484;11.112;2023-08-06T06:20:49;4.67;;;3.60;;
2720;SDS011;1368;49.484;11.112;2023-08-06T06:23:14;4.70;;;3.80;;
2720;SDS011;1368;49.484;11.112;2023-08-06T06:25:44;5.23;;;4.53;;
2720;SDS011;1368;49.484;11.112;2023-08-06T06:28:12;7.90;;;4.53;;
2720;SDS011;1368;49.484;11.112;2023-08-06T06:30:38;6.00;;;4.70;;
2720;SDS011;1368;49.484;11.112;2023-08-06T06:33:04;5.00;;;4.00;;
2720;SDS011;1368;49.484;11.112;2023-08-06T06:35:29;4.60;;;3.80;;
2720;SDS011;1368;49.484;11.112;2023-08-06T06:37:55;5.73;;;4.20;;
2720;SDS011;1368;49.484;11.112;2023-08-06T06:40:20;5.70;;;4.37;;
2720;SDS011;1368;49.484;11.112;2023-08-06T06:42:46;5.83;;;4.90;;
2720;SDS011;1368;49.484;11.112;2023-08-06T06:45:11;6.67;;;5.47;;
2720;SDS011;1368;49.484;11.112;2023-08-06T06:47:37;7.33;;;5.17;;
2720;SDS011;1368;49.484;11.112;2023-08-06T06:50:03;6.80;;;4.77;;
2720;SDS011;1368;49.484;11.112;2023-08-06T06:52:29;5.50;;;4.30;;
2720;SDS011;1368;49.484;11.112;2023-08-06T06:54:55;8.50;;;5.60;;
2720;SDS011;1368;49.484;11.112;2023-08-06T06:57:20;9.27;;;4.87;;
2720;SDS011;1368;49.484;11.112;2023-08-06T06:59:46;7.93;;;4.70;;
2720;SDS011;1368;49.484;11.112;2023-08-06T07:02:11;9.33;;;5.33;;
2720;SDS011;1368;49.484;11.112;2023-08-06T07:04:37;6.43;;;4.30;;
2720;SDS011;1368;49.484;11.112;2023-08-06T07:07:02;12.80;;;5.00;;
2720;SDS011;1368;49.484;11.112;2023-08-06T07:09:28;6.47;;;5.20;;
2720;SDS011;1368;49.484;11.112;2023-08-06T07:11:54;7.70;;;5.00;;
2720;SDS011;1368;49.484;11.112;2023-08-06T07:14:19;7.43;;;4.70;;
2720;SDS011;1368;49.484;11.112;2023-08-06T07:16:45;7.90;;;5.27;;
2720;SDS011;1368;49.484;11.112;2023-08-06T07:19:10;9.13;;;5.30;;
2720;SDS011;1368;49.484;11.112;2023-08-06T07:21:36;6.47;;;5.20;;
2720;SDS011;1368;49.484;11.112;2023-08-06T07:24:01;5.67;;;4.60;;
2720;SDS011;1368;49.484;11.112;2023-08-06T07:26:27;6.40;;;5.23;;
2720;SDS011;1368;49.484;11.112;2023-08-06T07:28:53;7.67;;;5.87;;
2720;SDS011;1368;49.484;11.112;2023-08-06T07:31:18;5.70;;;4.67;;
2720;SDS011;1368;49.484;11.112;2023-08-06T07:33:44;7.70;;;5.63;;
2720;SDS011;1368;49.484;11.112;2023-08-06T07:36:13;8.30;;;5.43;;
2720;SDS011;1368;49.484;11.112;2023-08-06T07:38:40;7.30;;;5.07;;
2720;SDS011;1368;49.484;11.112;2023-08-06T07:41:06;6.13;;;4.43;;
2720;SDS011;1368;49.484;11.112;2023-08-06T07:43:31;7.97;;;4.50;;
2720;SDS011;1368;49.484;11.112;2023-08-06T07:45:58;7.73;;;4.50;;
2720;SDS011;1368;49.484;11.112;2023-08-06T07:48:25;6.10;;;4.73;;
2720;SDS011;1368;49.484;11.112;2023-08-06T07:50:51;6.00;;;5.10;;
2720;SDS011;1368;49.484;11.112;2023-08-06T07:53:18;8.20;;;5.43;;
2720;SDS011;1368;49.484;11.112;2023-08-06T07:55:48;4.10;;;3.27;;
2720;SDS011;1368;49.484;11.112;2023-08-06T07:58:17;5.93;;;3.80;;
2720;SDS011;1368;49.484;11.112;2023-08-06T08:00:43;6.87;;;4.00;;
2720;SDS011;1368;49.484;11.112;2023-08-06T08:03:10;4.77;;;3.47;;
2720;SDS011;1368;49.484;11.112;2023-08-06T08:05:38;5.30;;;3.30;;
2720;SDS011;1368;49.484;11.112;2023-08-06T08:08:04;5.90;;;3.30;;
2720;SDS011;1368;49.484;11.112;2023-08-06T08:10:30;4.90;;;3.33;;
2720;SDS011;1368;49.484;11.112;2023-08-06T08:12:56;4.03;;;2.93;;
2720;SDS011;1368;49.484;11.112;2023-08-06T08:15:21;6.00;;;3.40;;
2720;SDS011;1368;49.484;11.112;2023-08-06T08:17:47;4.23;;;3.10;;
2720;SDS011;1368;49.484;11.112;2023-08-06T08:20:13;6.43;;;3.10;;
2720;SDS011;1368;49.484;11.112;2023-08-06T08:22:40;6.17;;;3.17;;
2720;SDS011;1368;49.484;11.112;2023-08-06T08:25:05;5.57;;;3.63;;
2720;SDS011;1368;49.484;11.112;2023-08-06T08:27:31;5.50;;;3.47;;
2720;SDS011;1368;49.484;11.112;2023-08-06T08:29:57;4.13;;;2.80;;
2720;SDS011;1368;49.484;11.112;2023-08-06T08:32:22;3.87;;;2.47;;
2720;SDS011;1368;49.484;11.112;2023-08-06T08:34:48;4.60;;;2.30;;
2720;SDS011;1368;49.484;11.112;2023-08-06T08:37:14;4.50;;;2.00;;
2720;SDS011;1368;49.484;11.112;2023-08-06T08:39:40;5.93;;;2.10;;
2720;SDS011;1368;49.484;11.112;2023-08-06T08:42:06;4.10;;;2.10;;
2720;SDS011;1368;49.484;11.112;2023-08-06T08:44:32;2.97;;;1.40;;
2720;SDS011;1368;49.484;11.112;2023-08-06T08:46:59;3.60;;;2.03;;
2720;SDS011;1368;49.484;11.112;2023-08-06T08:49:24;3.30;;;1.30;;
2720;SDS011;1368;49.484;11.112;2023-08-06T08:51:53;2.53;;;1.20;;
2720;SDS011;1368;49.484;11.112;2023-08-06T08:54:20;1.90;;;0.97;;
2720;SDS011;1368;49.484;11.112;2023-08-06T08:56:48;2.83;;;1.50;;
2720;SDS011;1368;49.484;11.112;2023-08-06T08:59:13;2.30;;;1.10;;
2720;SDS011;1368;49.484;11.112;2023-08-06T09:01:39;2.50;;;0.93;;
2720;SDS011;1368;49.484;11.112;2023-08-06T09:04:06;2.40;;;0.97;;
2720;SDS011;1368;49.484;11.112;2023-08-06T09:06:33;3.00;;;0.77;;
2720;SDS011;1368;49.484;11.112;2023-08-06T09:09:11;1.90;;;0.80;;
2720;SDS011;1368;49.484;11.112;2023-08-06T09:11:44;3.10;;;0.90;;
2720;SDS011;1368;49.484;11.112;2023-08-06T09:14:10;3.33;;;1.10;;
2720;SDS011;1368;49.484;11.112;2023-08-06T09:16:37;1.70;;;0.60;;
2720;SDS011;1368;49.484;11.112;2023-08-06T09:19:10;2.60;;;0.80;;
2720;SDS011;1368;49.484;11.112;2023-08-06T09:21:37;1.80;;;0.60;;
2720;SDS011;1368;49.484;11.112;2023-08-06T09:24:10;1.90;;;0.70;;
2720;SDS011;1368;49.484;11.112;2023-08-06T09:26:37;1.67;;;0.60;;
2720;SDS011;1368;49.484;11.112;2023-08-06T09:29:06;2.07;;;0.73;;
2720;SDS011;1368;49.484;11.112;2023-08-06T09:31:42;3.00;;;0.80;;
2720;SDS011;1368;49.484;11.112;2023-08-06T09:34:15;3.40;;;0.80;;
2720;SDS011;1368;49.484;11.112;2023-08-06T09:36:42;2.17;;;0.70;;
2720;SDS011;1368;49.484;11.112;2023-08-06T09:39:14;1.90;;;0.50;;
2720;SDS011;1368;49.484;11.112;2023-08-06T09:41:44;3.23;;;0.67;;
2720;SDS011;1368;49.484;11.112;2023-08-06T09:44:22;2.00;;;0.60;;
2720;SDS011;1368;49.484;11.112;2023-08-06T09:46:51;1.97;;;0.70;;
2720;SDS011;1368;49.484;11.112;2023-08-06T09:49:21;2.10;;;0.70;;
2720;SDS011;1368;49.484;11.112;2023-08-06T09:51:51;2.20;;;0.60;;
2720;SDS011;1368;49.484;11.112;2023-08-06T09:54:18;2.00;;;0.60;;
2720;SDS011;1368;49.484;11.112;2023-08-06T09:56:44;1.50;;;0.50;;
2720;SDS011;1368;49.484;11.112;2023-08-06T09:59:10;2.13;;;0.60;;
2720;SDS011;1368;49.484;11.112;2023-08-06T10:01:38;1.67;;;0.60;;
2720;SDS011;1368;49.484;11.112;2023-08-06T10:04:04;1.80;;;0.57;;
2720;SDS011;1368;49.484;11.112;2023-08-06T10:06:36;2.83;;;0.87;;
2720;SDS011;1368;49.484;11.112;2023-08-06T10:09:02;1.93;;;0.53;;
2720;SDS011;1368;49.484;11.112;2023-08-06T10:11:28;1.70;;;0.60;;
2720;SDS011;1368;49.484;11.112;2023-08-06T10:14:00;1.70;;;0.50;;
2720;SDS011;1368;49.484;11.112;2023-08-06T10:16:31;1.90;;;0.60;;
2720;SDS011;1368;49.484;11.112;2023-08-06T10:18:58;1.90;;;0.60;;
2720;SDS011;1368;49.484;11.112;2023-08-06T10:21:26;3.00;;;0.73;;
2720;SDS011;1368;49.484;11.112;2023-08-06T10:23:55;2.00;;;0.60;;
2720;SDS011;1368;49.484;11.112;2023-08-06T10:26:25;2.63;;;0.80;;
2720;SDS011;1368;49.484;11.112;2023-08-06T10:28:52;3.03;;;0.70;;
2720;SDS011;1368;49.484;11.112;2023-08-06T10:31:18;1.80;;;0.60;;
2720;SDS011;1368;49.484;11.112;2023-08-06T10:33:45;1.70;;;0.57;;
2720;SDS011;1368;49.484;11.112;2023-08-06T10:36:12;1.63;;;0.60;;
2720;SDS011;1368;49.484;11.112;2023-08-06T10:38:47;5.03;;;0.80;;
2720;SDS011;1368;49.484;11.112;2023-08-06T10:41:17;2.10;;;0.70;;
2720;SDS011;1368;49.484;11.112;2023-08-06T10:43:49;1.70;;;0.60;;
2720;SDS011;1368;49.484;11.112;2023-08-06T10:46:26;1.70;;;0.50;;
2720;SDS011;1368;49.484;11.112;2023-08-06T10:48:52;2.00;;;0.63;;
2720;SDS011;1368;49.484;11.112;2023-08-06T10:51:18;1.60;;;0.50;;
2720;SDS011;1368;49.484;11.112;2023-08-06T10:53:45;1.90;;;0.50;;
2720;SDS011;1368;49.484;11.112;2023-08-06T10:56:15;2.00;;;0.50;;
2720;SDS011;1368;49.484;11.112;2023-08-06T10:58:42;1.70;;;0.50;;
2720;SDS011;1368;49.484;11.112;2023-08-06T11:01:10;2.67;;;0.73;;
2720;SDS011;1368;49.484;11.112;2023-08-06T11:03:36;2.20;;;0.80;;
2720;SDS011;1368;49.484;11.112;2023-08-06T11:06:02;2.30;;;0.60;;
2720;SDS011;1368;49.484;11.112;2023-08-06T11:08:29;1.70;;;0.57;;
2720;SDS011;1368;49.484;11.112;2023-08-06T11:11:07;2.77;;;0.67;;
2720;SDS011;1368;49.484;11.112;2023-08-06T11:13:38;1.70;;;0.53;;
2720;SDS011;1368;49.484;11.112;2023-08-06T11:16:05;1.40;;;0.40;;
2720;SDS011;1368;49.484;11.112;2023-08-06T11:18:31;2.00;;;0.70;;
2720;SDS011;1368;49.484;11.112;2023-08-06T11:20:58;1.80;;;0.50;;
2720;SDS011;1368;49.484;11.112;2023-08-06T11:23:26;2.13;;;0.60;;
2720;SDS011;1368;49.484;11.112;2023-08-06T11:25:58;1.60;;;0.40;;
2720;SDS011;1368;49.484;11.112;2023-08-06T11:28:23;2.20;;;0.60;;
2720;SDS011;1368;49.484;11.112;2023-08-06T11:30:49;1.67;;;0.60;;
2720;SDS011;1368;49.484;11.112;2023-08-06T11:33:25;1.90;;;0.73;;
2720;SDS011;1368;49.484;11.112;2023-08-06T11:35:52;2.07;;;0.60;;
2720;SDS011;1368;49.484;11.112;2023-08-06T11:38:19;1.90;;;0.63;;
2720;SDS011;1368;49.484;11.112;2023-08-06T11:40:45;1.77;;;0.50;;
2720;SDS011;1368;49.484;11.112;2023-08-06T11:43:12;2.47;;;0.60;;
2720;SDS011;1368;49.484;11.112;2023-08-06T11:45:38;1.60;;;0.50;;
2720;SDS011;1368;49.484;11.112;2023-08-06T11:48:04;1.60;;;0.60;;
2720;SDS011;1368;49.484;11.112;2023-08-06T11:50:30;2.07;;;0.60;;
2720;SDS011;1368;49.484;11.112;2023-08-06T11:52:57;2.97;;;0.87;;
2720;SDS011;1368;49.484;11.112;2023-08-06T11:55:24;3.20;;;0.60;;
2720;SDS011;1368;49.484;11.112;2023-08-06T11:57:50;2.23;;;0.70;;
2720;SDS011;1368;49.484;11.112;2023-08-06T12:00:16;1.70;;;0.47;;
2720;SDS011;1368;49.484;11.112;2023-08-06T12:02:45;1.90;;;0.50;;
2720;SDS011;1368;49.484;11.112;2023-08-06T12:05:12;1.67;;;0.50;;
2720;SDS011;1368;49.484;11.112;2023-08-06T12:07:38;1.67;;;0.40;;
2720;SDS011;1368;49.484;11.112;2023-08-06T12:10:05;1.60;;;0.50;;
2720;SDS011;1368;49.484;11.112;2023-08-06T12:12:31;1.70;;;0.60;;
2720;SDS011;1368;49.484;11.112;2023-08-06T12:14:57;4.50;;;0.80;;
2720;SDS011;1368;49.484;11.112;2023-08-06T12:17:23;3.40;;;0.80;;
2720;SDS011;1368;49.484;11.112;2023-08-06T12:19:49;9.33;;;1.50;;
2720;SDS011;1368;49.484;11.112;2023-08-06T12:22:15;2.57;;;0.80;;
2720;SDS011;1368;49.484;11.112;2023-08-06T12:24:42;6.37;;;1.13;;
2720;SDS011;1368;49.484;11.112;2023-08-06T12:27:08;5.90;;;0.80;;
2720;SDS011;1368;49.484;11.112;2023-08-06T12:29:34;3.47;;;0.97;;
2720;SDS011;1368;49.484;11.112;2023-08-06T12:32:00;2.20;;;0.70;;
2720;SDS011;1368;49.484;11.112;2023-08-06T12:34:26;3.03;;;0.80;;
2720;SDS011;1368;49.484;11.112;2023-08-06T12:36:52;2.43;;;0.80;;
2720;SDS011;1368;49.484;11.112;2023-08-06T12:39:18;2.83;;;0.93;;
2720;SDS011;1368;49.484;11.112;2023-08-06T12:41:43;1.73;;;0.80;;
2720;SDS011;1368;49.484;11.112;2023-08-06T12:44:10;1.90;;;0.80;;
2720;SDS011;1368;49.484;11.112;2023-08-06T12:46:39;1.60;;;0.70;;
2720;SDS011;1368;49.484;11.112;2023-08-06T12:49:05;2.17;;;0.77;;
2720;SDS011;1368;49.484;11.112;2023-08-06T12:51:31;1.90;;;0.80;;
2720;SDS011;1368;49.484;11.112;2023-08-06T12:53:58;1.70;;;0.70;;
2720;SDS011;1368;49.484;11.112;2023-08-06T12:56:24;1.60;;;0.50;;
2720;SDS011;1368;49.484;11.112;2023-08-06T12:58:49;6.33;;;0.70;;
2720;SDS011;1368;49.484;11.112;2023-08-06T13:01:15;2.10;;;0.57;;
2720;SDS011;1368;49.484;11.112;2023-08-06T13:03:40;1.60;;;0.50;;
2720;SDS011;1368;49.484;11.112;2023-08-06T13:06:06;1.83;;;0.70;;
2720;SDS011;1368;49.484;11.112;2023-08-06T13:08:32;1.63;;;0.60;;
2720;SDS011;1368;49.484;11.112;2023-08-06T13:10:58;1.50;;;0.40;;
2720;SDS011;1368;49.484;11.112;2023-08-06T13:13:23;2.23;;;0.60;;
2720;SDS011;1368;49.484;11.112;2023-08-06T13:15:51;2.13;;;0.60;;
2720;SDS011;1368;49.484;11.112;2023-08-06T13:18:17;1.93;;;0.53;;
2720;SDS011;1368;49.484;11.112;2023-08-06T13:20:43;1.60;;;0.50;;
2720;SDS011;1368;49.484;11.112;2023-08-06T13:23:08;1.60;;;0.50;;
2720;SDS011;1368;49.484;11.112;2023-08-06T13:25:34;2.57;;;0.50;;
2720;SDS011;1368;49.484;11.112;2023-08-06T13:28:04;1.80;;;0.63;;
2720;SDS011;1368;49.484;11.112;2023-08-06T13:30:30;1.57;;;0.50;;
2720;SDS011;1368;49.484;11.112;2023-08-06T13:32:56;2.17;;;0.47;;
2720;SDS011;1368;49.484;11.112;2023-08-06T13:35:22;1.40;;;0.40;;
2720;SDS011;1368;49.484;11.112;2023-08-06T13:37:48;2.87;;;0.60;;
2720;SDS011;1368;49.484;11.112;2023-08-06T13:40:14;1.70;;;0.50;;
2720;SDS011;1368;49.484;11.112;2023-08-06T13:42:39;2.83;;;0.60;;
2720;SDS011;1368;49.484;11.112;2023-08-06T13:45:05;1.70;;;0.50;;
2720;SDS011;1368;49.484;11.112;2023-08-06T13:47:31;2.00;;;0.50;;
2720;SDS011;1368;49.484;11.112;2023-08-06T13:49:57;1.60;;;0.50;;
2720;SDS011;1368;49.484;11.112;2023-08-06T13:52:23;1.47;;;0.47;;
2720;SDS011;1368;49.484;11.112;2023-08-06T13:54:50;2.00;;;0.50;;
2720;SDS011;1368;49.484;11.112;2023-08-06T13:57:15;5.63;;;0.60;;
2720;SDS011;1368;49.484;11.112;2023-08-06T13:59:42;1.50;;;0.50;;
2720;SDS011;1368;49.484;11.112;2023-08-06T14:02:08;1.60;;;0.60;;
2720;SDS011;1368;49.484;11.112;2023-08-06T14:04:34;1.77;;;0.50;;
2720;SDS011;1368;49.484;11.112;2023-08-06T14:07:00;1.50;;;0.40;;
2720;SDS011;1368;49.484;11.112;2023-08-06T14:09:25;1.70;;;0.50;;
2720;SDS011;1368;49.484;11.112;2023-08-06T14:11:51;1.60;;;0.50;;
2720;SDS011;1368;49.484;11.112;2023-08-06T14:14:16;1.67;;;0.50;;
2720;SDS011;1368;49.484;11.112;2023-08-06T14:16:42;1.50;;;0.50;;
2720;SDS011;1368;49.484;11.112;2023-08-06T14:19:07;1.50;;;0.50;;
2720;SDS011;1368;49.484;11.112;2023-08-06T14:21:33;1.80;;;0.60;;
2720;SDS011;1368;49.484;11.112;2023-08-06T14:23:58;1.37;;;0.40;;
2720;SDS011;1368;49.484;11.112;2023-08-06T14:26:24;1.50;;;0.50;;
2720;SDS011;1368;49.484;11.112;2023-08-06T14:28:50;2.50;;;0.67;;
2720;SDS011;1368;49.484;11.112;2023-08-06T14:31:19;1.50;;;0.60;;
2720;SDS011;1368;49.484;11.112;2023-08-06T14:33:45;2.03;;;0.67;;
2720;SDS011;1368;49.484;11.112;2023-08-06T14:36:11;1.50;;;0.60;;
2720;SDS011;1368;49.484;11.112;2023-08-06T14:38:36;1.50;;;0.60;;
2720;SDS011;1368;49.484;11.112;2023-08-06T14:41:02;1.40;;;0.50;;
2720;SDS011;1368;49.484;11.112;2023-08-06T14:43:27;1.47;;;0.50;;
2720;SDS011;1368;49.484;11.112;2023-08-06T14:45:53;4.80;;;0.67;;
2720;SDS011;1368;49.484;11.112;2023-08-06T14:48:18;2.73;;;0.70;;
2720;SDS011;1368;49.484;11.112;2023-08-06T14:50:44;1.60;;;0.50;;
2720;SDS011;1368;49.484;11.112;2023-08-06T14:53:10;1.50;;;0.60;;
2720;SDS011;1368;49.484;11.112;2023-08-06T14:55:36;1.80;;;0.60;;